sensor_id;sensor_type;location;lat;lon;timestamp;P1;durP1;ratioP1;P2;durP2;ratioP2
44750;SDS011;30477;48.224;11.470;2023-03-11T00:01:10;1.30;;;1.20;;
44750;SDS011;30477;48.224;11.470;2023-03-11T00:03:36;1.47;;;1.37;;
44750;SDS011;30477;48.224;11.470;2023-03-11T00:06:01;1.87;;;1.00;;
44750;SDS011;30477;48.224;11.470;2023-03-11T00:08:28;1.40;;;1.27;;
44750;SDS011;30477;48.224;11.470;2023-03-11T00:10:54;1.63;;;1.15;;
44750;SDS011;30477;48.224;11.470;2023-03-11T00:13:22;2.03;;;1.40;;
44750;SDS011;30477;48.224;11.470;2023-03-11T00:15:48;1.20;;;1.10;;
44750;SDS011;30477;48.224;11.470;2023-03-11T00:18:15;1.48;;;1.20;;
44750;SDS011;30477;48.224;11.470;2023-03-11T00:20:43;1.30;;;1.20;;
44750;SDS011;30477;48.224;11.470;2023-03-11T00:23:10;1.45;;;1.25;;
44750;SDS011;30477;48.224;11.470;2023-03-11T00:25:37;1.48;;;1.38;;
44750;SDS011;30477;48.224;11.470;2023-03-11T00:28:03;2.25;;;1.40;;
44750;SDS011;30477;48.224;11.470;2023-03-11T00:30:35;1.30;;;1.20;;
44750;SDS011;30477;48.224;11.470;2023-03-11T00:35:27;1.30;;;1.17;;
44750;SDS011;30477;48.224;11.470;2023-03-11T00:37:56;1.45;;;1.27;;
44750;SDS011;30477;48.224;11.470;2023-03-11T00:40:23;1.75;;;1.40;;
44750;SDS011;30477;48.224;11.470;2023-03-11T00:42:50;1.60;;;1.40;;
44750;SDS011;30477;48.224;11.470;2023-03-11T00:45:16;1.10;;;1.10;;
44750;SDS011;30477;48.224;11.470;2023-03-11T00:47:42;1.30;;;1.20;;
44750;SDS011;30477;48.224;11.470;2023-03-11T00:50:08;1.52;;;1.30;;
44750;SDS011;30477;48.224;11.470;2023-03-11T00:52:37;1.45;;;1.35;;
44750;SDS011;30477;48.224;11.470;2023-03-11T00:55:03;1.97;;;1.40;;
44750;SDS011;30477;48.224;11.470;2023-03-11T00:57:30;1.40;;;1.30;;
44750;SDS011;30477;48.224;11.470;2023-03-11T00:59:55;1.70;;;1.60;;
44750;SDS011;30477;48.224;11.470;2023-03-11T01:02:21;2.00;;;1.50;;
44750;SDS011;30477;48.224;11.470;2023-03-11T01:04:46;1.52;;;1.42;;
44750;SDS011;30477;48.224;11.470;2023-03-11T01:07:12;1.83;;;1.63;;
44750;SDS011;30477;48.224;11.470;2023-03-11T01:09:37;1.80;;;1.70;;
44750;SDS011;30477;48.224;11.470;2023-03-11T01:12:02;4.00;;;1.67;;
44750;SDS011;30477;48.224;11.470;2023-03-11T01:14:28;1.40;;;1.30;;
44750;SDS011;30477;48.224;11.470;2023-03-11T01:16:53;1.43;;;1.30;;
44750;SDS011;30477;48.224;11.470;2023-03-11T01:19:19;1.50;;;1.40;;
44750;SDS011;30477;48.224;11.470;2023-03-11T01:21:44;2.00;;;1.70;;
44750;SDS011;30477;48.224;11.470;2023-03-11T01:24:10;1.47;;;1.37;;
44750;SDS011;30477;48.224;11.470;2023-03-11T01:26:35;1.60;;;1.50;;
44750;SDS011;30477;48.224;11.470;2023-03-11T01:29:01;2.60;;;1.70;;
44750;SDS011;30477;48.224;11.470;2023-03-11T01:31:26;1.57;;;1.47;;
44750;SDS011;30477;48.224;11.470;2023-03-11T01:33:51;1.47;;;1.37;;
44750;SDS011;30477;48.224;11.470;2023-03-11T01:36:17;1.40;;;1.30;;
44750;SDS011;30477;48.224;11.470;2023-03-11T01:38:42;1.87;;;1.67;;
44750;SDS011;30477;48.224;11.470;2023-03-11T01:41:08;1.40;;;1.30;;
44750;SDS011;30477;48.224;11.470;2023-03-11T01:46:30;1.30;;;1.20;;
44750;SDS011;30477;48.224;11.470;2023-03-11T01:49:04;2.60;;;1.60;;
44750;SDS011;30477;48.224;11.470;2023-03-11T01:51:42;1.58;;;1.38;;
44750;SDS011;30477;48.224;11.470;2023-03-11T01:54:14;1.30;;;1.20;;
44750;SDS011;30477;48.224;11.470;2023-03-11T01:56:42;1.48;;;1.38;;
44750;SDS011;30477;48.224;11.470;2023-03-11T01:59:10;1.25;;;1.15;;
44750;SDS011;30477;48.224;11.470;2023-03-11T02:01:40;2.72;;;1.27;;
44750;SDS011;30477;48.224;11.470;2023-03-11T02:04:17;1.45;;;1.35;;
44750;SDS011;30477;48.224;11.470;2023-03-11T02:06:43;2.25;;;1.52;;
44750;SDS011;30477;48.224;11.470;2023-03-11T02:09:09;1.40;;;1.30;;
44750;SDS011;30477;48.224;11.470;2023-03-11T02:11:34;1.20;;;1.10;;
44750;SDS011;30477;48.224;11.470;2023-03-11T02:14:01;1.50;;;1.40;;
44750;SDS011;30477;48.224;11.470;2023-03-11T02:16:29;2.17;;;1.30;;
44750;SDS011;30477;48.224;11.470;2023-03-11T02:18:56;1.42;;;1.33;;
44750;SDS011;30477;48.224;11.470;2023-03-11T02:21:25;1.45;;;1.33;;
44750;SDS011;30477;48.224;11.470;2023-03-11T02:27:00;2.67;;;1.40;;
44750;SDS011;30477;48.224;11.470;2023-03-11T02:29:29;1.92;;;1.42;;
44750;SDS011;30477;48.224;11.470;2023-03-11T02:31:57;1.45;;;1.25;;
44750;SDS011;30477;48.224;11.470;2023-03-11T02:34:25;1.35;;;1.25;;
44750;SDS011;30477;48.224;11.470;2023-03-11T02:36:55;1.48;;;1.30;;
44750;SDS011;30477;48.224;11.470;2023-03-11T02:39:31;2.45;;;1.55;;
44750;SDS011;30477;48.224;11.470;2023-03-11T02:41:59;1.45;;;1.33;;
44750;SDS011;30477;48.224;11.470;2023-03-11T02:44:28;1.50;;;1.40;;
44750;SDS011;30477;48.224;11.470;2023-03-11T02:46:54;2.00;;;1.70;;
44750;SDS011;30477;48.224;11.470;2023-03-11T02:49:20;1.77;;;1.50;;
44750;SDS011;30477;48.224;11.470;2023-03-11T02:51:46;1.58;;;1.27;;
44750;SDS011;30477;48.224;11.470;2023-03-11T02:54:12;2.60;;;1.53;;
44750;SDS011;30477;48.224;11.470;2023-03-11T02:56:38;2.22;;;1.50;;
44750;SDS011;30477;48.224;11.470;2023-03-11T02:59:03;2.07;;;1.70;;
44750;SDS011;30477;48.224;11.470;2023-03-11T03:01:28;1.40;;;1.30;;
44750;SDS011;30477;48.224;11.470;2023-03-11T03:03:54;1.87;;;1.40;;
44750;SDS011;30477;48.224;11.470;2023-03-11T03:06:19;1.50;;;1.40;;
44750;SDS011;30477;48.224;11.470;2023-03-11T03:08:45;1.60;;;1.50;;
44750;SDS011;30477;48.224;11.470;2023-03-11T03:11:10;1.43;;;1.33;;
44750;SDS011;30477;48.224;11.470;2023-03-11T03:13:36;1.53;;;1.43;;
44750;SDS011;30477;48.224;11.470;2023-03-11T03:16:01;1.87;;;1.50;;
44750;SDS011;30477;48.224;11.470;2023-03-11T03:18:27;3.25;;;1.48;;
44750;SDS011;30477;48.224;11.470;2023-03-11T03:20:53;2.30;;;1.42;;
44750;SDS011;30477;48.224;11.470;2023-03-11T03:23:18;1.52;;;1.33;;
44750;SDS011;30477;48.224;11.470;2023-03-11T03:25:44;1.42;;;1.30;;
44750;SDS011;30477;48.224;11.470;2023-03-11T03:28:11;1.55;;;1.45;;
44750;SDS011;30477;48.224;11.470;2023-03-11T03:30:37;1.73;;;1.58;;
44750;SDS011;30477;48.224;11.470;2023-03-11T03:33:03;3.58;;;1.50;;
44750;SDS011;30477;48.224;11.470;2023-03-11T03:35:28;1.92;;;1.40;;
44750;SDS011;30477;48.224;11.470;2023-03-11T03:37:54;1.27;;;1.17;;
44750;SDS011;30477;48.224;11.470;2023-03-11T03:40:19;1.30;;;1.20;;
44750;SDS011;30477;48.224;11.470;2023-03-11T03:42:45;1.67;;;1.50;;
44750;SDS011;30477;48.224;11.470;2023-03-11T03:45:10;2.20;;;1.50;;
44750;SDS011;30477;48.224;11.470;2023-03-11T03:47:36;2.15;;;1.52;;
44750;SDS011;30477;48.224;11.470;2023-03-11T03:50:06;2.80;;;1.70;;
44750;SDS011;30477;48.224;11.470;2023-03-11T03:52:34;3.40;;;1.50;;
44750;SDS011;30477;48.224;11.470;2023-03-11T03:55:00;2.10;;;1.50;;
44750;SDS011;30477;48.224;11.470;2023-03-11T03:57:27;3.60;;;1.70;;
44750;SDS011;30477;48.224;11.470;2023-03-11T03:59:52;2.05;;;1.50;;
44750;SDS011;30477;48.224;11.470;2023-03-11T04:02:18;1.83;;;1.60;;
44750;SDS011;30477;48.224;11.470;2023-03-11T04:04:43;2.10;;;1.40;;
44750;SDS011;30477;48.224;11.470;2023-03-11T04:07:09;3.50;;;1.70;;
44750;SDS011;30477;48.224;11.470;2023-03-11T04:09:34;2.20;;;1.33;;
44750;SDS011;30477;48.224;11.470;2023-03-11T04:12:02;1.70;;;1.45;;
44750;SDS011;30477;48.224;11.470;2023-03-11T04:14:28;2.87;;;1.63;;
44750;SDS011;30477;48.224;11.470;2023-03-11T04:16:53;2.13;;;1.50;;
44750;SDS011;30477;48.224;11.470;2023-03-11T04:19:18;1.80;;;1.60;;
44750;SDS011;30477;48.224;11.470;2023-03-11T04:21:44;2.33;;;1.43;;
44750;SDS011;30477;48.224;11.470;2023-03-11T04:24:09;2.07;;;1.60;;
44750;SDS011;30477;48.224;11.470;2023-03-11T04:26:34;1.70;;;1.60;;
44750;SDS011;30477;48.224;11.470;2023-03-11T04:29:00;1.75;;;1.45;;
44750;SDS011;30477;48.224;11.470;2023-03-11T04:31:25;1.63;;;1.53;;
44750;SDS011;30477;48.224;11.470;2023-03-11T04:33:51;1.77;;;1.63;;
44750;SDS011;30477;48.224;11.470;2023-03-11T04:36:16;2.37;;;1.73;;
44750;SDS011;30477;48.224;11.470;2023-03-11T04:38:42;2.00;;;1.50;;
44750;SDS011;30477;48.224;11.470;2023-03-11T04:41:07;5.97;;;1.80;;
44750;SDS011;30477;48.224;11.470;2023-03-11T04:43:32;2.37;;;1.70;;
44750;SDS011;30477;48.224;11.470;2023-03-11T04:45:58;1.77;;;1.60;;
44750;SDS011;30477;48.224;11.470;2023-03-11T04:48:23;3.17;;;1.50;;
44750;SDS011;30477;48.224;11.470;2023-03-11T04:50:51;2.17;;;1.60;;
44750;SDS011;30477;48.224;11.470;2023-03-11T04:53:16;1.60;;;1.50;;
44750;SDS011;30477;48.224;11.470;2023-03-11T04:55:42;2.67;;;1.70;;
44750;SDS011;30477;48.224;11.470;2023-03-11T04:58:07;2.27;;;1.80;;
44750;SDS011;30477;48.224;11.470;2023-03-11T05:00:32;4.43;;;1.90;;
44750;SDS011;30477;48.224;11.470;2023-03-11T05:02:58;3.03;;;1.70;;
44750;SDS011;30477;48.224;11.470;2023-03-11T05:05:23;2.40;;;1.80;;
44750;SDS011;30477;48.224;11.470;2023-03-11T05:07:48;1.77;;;1.67;;
44750;SDS011;30477;48.224;11.470;2023-03-11T05:10:14;4.63;;;2.13;;
44750;SDS011;30477;48.224;11.470;2023-03-11T05:12:46;2.97;;;1.88;;
44750;SDS011;30477;48.224;11.470;2023-03-11T05:15:14;2.10;;;1.67;;
44750;SDS011;30477;48.224;11.470;2023-03-11T05:17:40;1.80;;;1.60;;
44750;SDS011;30477;48.224;11.470;2023-03-11T05:20:05;3.10;;;1.60;;
44750;SDS011;30477;48.224;11.470;2023-03-11T05:24:57;1.85;;;1.73;;
44750;SDS011;30477;48.224;11.470;2023-03-11T05:27:22;1.40;;;1.30;;
44750;SDS011;30477;48.224;11.470;2023-03-11T05:29:48;1.67;;;1.47;;
44750;SDS011;30477;48.224;11.470;2023-03-11T05:32:13;2.17;;;1.50;;
44750;SDS011;30477;48.224;11.470;2023-03-11T05:34:39;1.60;;;1.40;;
44750;SDS011;30477;48.224;11.470;2023-03-11T05:37:04;1.67;;;1.50;;
44750;SDS011;30477;48.224;11.470;2023-03-11T05:39:29;4.10;;;1.63;;
44750;SDS011;30477;48.224;11.470;2023-03-11T05:41:55;1.50;;;1.40;;
44750;SDS011;30477;48.224;11.470;2023-03-11T05:44:21;2.60;;;1.53;;
44750;SDS011;30477;48.224;11.470;2023-03-11T05:46:47;1.77;;;1.60;;
44750;SDS011;30477;48.224;11.470;2023-03-11T05:49:12;3.43;;;1.90;;
44750;SDS011;30477;48.224;11.470;2023-03-11T05:51:37;2.27;;;1.60;;
44750;SDS011;30477;48.224;11.470;2023-03-11T05:54:03;1.60;;;1.50;;
44750;SDS011;30477;48.224;11.470;2023-03-11T05:56:28;2.30;;;1.37;;
44750;SDS011;30477;48.224;11.470;2023-03-11T05:58:56;3.77;;;1.70;;
44750;SDS011;30477;48.224;11.470;2023-03-11T06:01:22;3.20;;;1.60;;
44750;SDS011;30477;48.224;11.470;2023-03-11T06:03:47;2.87;;;1.47;;
44750;SDS011;30477;48.224;11.470;2023-03-11T06:06:12;2.50;;;1.70;;
44750;SDS011;30477;48.224;11.470;2023-03-11T06:08:38;2.55;;;1.75;;
44750;SDS011;30477;48.224;11.470;2023-03-11T06:11:08;3.28;;;1.70;;
44750;SDS011;30477;48.224;11.470;2023-03-11T06:13:35;2.67;;;1.73;;
44750;SDS011;30477;48.224;11.470;2023-03-11T06:16:01;2.30;;;1.65;;
44750;SDS011;30477;48.224;11.470;2023-03-11T06:18:27;2.03;;;1.70;;
44750;SDS011;30477;48.224;11.470;2023-03-11T06:20:53;4.00;;;1.70;;
44750;SDS011;30477;48.224;11.470;2023-03-11T06:23:21;3.00;;;1.70;;
44750;SDS011;30477;48.224;11.470;2023-03-11T06:25:57;3.75;;;2.05;;
44750;SDS011;30477;48.224;11.470;2023-03-11T06:28:23;2.60;;;1.88;;
44750;SDS011;30477;48.224;11.470;2023-03-11T06:30:49;2.83;;;2.15;;
44750;SDS011;30477;48.224;11.470;2023-03-11T06:33:15;2.83;;;2.13;;
44750;SDS011;30477;48.224;11.470;2023-03-11T06:35:40;3.60;;;1.90;;
44750;SDS011;30477;48.224;11.470;2023-03-11T06:38:06;4.37;;;1.90;;
44750;SDS011;30477;48.224;11.470;2023-03-11T06:40:31;2.40;;;2.00;;
44750;SDS011;30477;48.224;11.470;2023-03-11T06:42:57;2.60;;;1.77;;
44750;SDS011;30477;48.224;11.470;2023-03-11T06:45:23;6.80;;;2.20;;
44750;SDS011;30477;48.224;11.470;2023-03-11T06:47:48;4.63;;;1.40;;
44750;SDS011;30477;48.224;11.470;2023-03-11T06:50:14;1.83;;;1.60;;
44750;SDS011;30477;48.224;11.470;2023-03-11T06:52:39;5.40;;;2.00;;
44750;SDS011;30477;48.224;11.470;2023-03-11T06:55:05;3.13;;;2.20;;
44750;SDS011;30477;48.224;11.470;2023-03-11T06:57:32;3.58;;;2.13;;
44750;SDS011;30477;48.224;11.470;2023-03-11T06:59:58;3.65;;;1.90;;
44750;SDS011;30477;48.224;11.470;2023-03-11T07:02:23;4.10;;;2.17;;
44750;SDS011;30477;48.224;11.470;2023-03-11T07:04:49;2.03;;;1.80;;
44750;SDS011;30477;48.224;11.470;2023-03-11T07:07:14;3.85;;;2.13;;
44750;SDS011;30477;48.224;11.470;2023-03-11T07:09:40;3.83;;;1.97;;
44750;SDS011;30477;48.224;11.470;2023-03-11T07:12:05;3.73;;;2.33;;
44750;SDS011;30477;48.224;11.470;2023-03-11T07:14:30;3.47;;;1.90;;
44750;SDS011;30477;48.224;11.470;2023-03-11T07:16:56;4.27;;;2.37;;
44750;SDS011;30477;48.224;11.470;2023-03-11T07:19:21;12.63;;;2.30;;
44750;SDS011;30477;48.224;11.470;2023-03-11T07:21:46;6.30;;;2.00;;
44750;SDS011;30477;48.224;11.470;2023-03-11T07:24:12;3.05;;;1.73;;
44750;SDS011;30477;48.224;11.470;2023-03-11T07:26:38;1.85;;;1.70;;
44750;SDS011;30477;48.224;11.470;2023-03-11T07:29:04;3.30;;;1.95;;
44750;SDS011;30477;48.224;11.470;2023-03-11T07:31:30;5.40;;;1.97;;
44750;SDS011;30477;48.224;11.470;2023-03-11T07:33:58;2.42;;;1.60;;
44750;SDS011;30477;48.224;11.470;2023-03-11T07:36:26;2.28;;;1.50;;
44750;SDS011;30477;48.224;11.470;2023-03-11T07:39:00;3.85;;;1.55;;
44750;SDS011;30477;48.224;11.470;2023-03-11T07:41:28;8.68;;;3.50;;
44750;SDS011;30477;48.224;11.470;2023-03-11T07:43:56;5.70;;;1.70;;
44750;SDS011;30477;48.224;11.470;2023-03-11T07:46:23;3.75;;;1.73;;
44750;SDS011;30477;48.224;11.470;2023-03-11T07:48:50;6.93;;;1.70;;
44750;SDS011;30477;48.224;11.470;2023-03-11T07:51:18;4.88;;;1.75;;
44750;SDS011;30477;48.224;11.470;2023-03-11T07:53:45;7.70;;;1.77;;
44750;SDS011;30477;48.224;11.470;2023-03-11T07:56:12;3.55;;;1.50;;
44750;SDS011;30477;48.224;11.470;2023-03-11T07:58:39;3.53;;;1.70;;
44750;SDS011;30477;48.224;11.470;2023-03-11T08:01:05;3.27;;;1.70;;
44750;SDS011;30477;48.224;11.470;2023-03-11T08:03:42;6.38;;;1.70;;
44750;SDS011;30477;48.224;11.470;2023-03-11T08:06:17;3.58;;;1.80;;
44750;SDS011;30477;48.224;11.470;2023-03-11T08:08:44;3.22;;;1.73;;
44750;SDS011;30477;48.224;11.470;2023-03-11T08:11:09;2.80;;;1.70;;
44750;SDS011;30477;48.224;11.470;2023-03-11T08:13:37;6.25;;;1.60;;
44750;SDS011;30477;48.224;11.470;2023-03-11T08:16:04;2.72;;;1.70;;
44750;SDS011;30477;48.224;11.470;2023-03-11T08:18:30;3.25;;;1.75;;
44750;SDS011;30477;48.224;11.470;2023-03-11T08:20:57;4.57;;;1.90;;
44750;SDS011;30477;48.224;11.470;2023-03-11T08:23:22;5.60;;;1.80;;
44750;SDS011;30477;48.224;11.470;2023-03-11T08:25:48;3.03;;;1.90;;
44750;SDS011;30477;48.224;11.470;2023-03-11T08:28:13;4.23;;;2.13;;
44750;SDS011;30477;48.224;11.470;2023-03-11T08:30:38;2.80;;;1.80;;
44750;SDS011;30477;48.224;11.470;2023-03-11T08:33:04;3.93;;;1.97;;
44750;SDS011;30477;48.224;11.470;2023-03-11T08:35:30;3.20;;;1.83;;
44750;SDS011;30477;48.224;11.470;2023-03-11T08:37:56;5.15;;;2.17;;
44750;SDS011;30477;48.224;11.470;2023-03-11T08:40:21;3.47;;;1.83;;
44750;SDS011;30477;48.224;11.470;2023-03-11T08:42:47;2.15;;;1.73;;
44750;SDS011;30477;48.224;11.470;2023-03-11T08:45:12;3.07;;;1.80;;
44750;SDS011;30477;48.224;11.470;2023-03-11T08:47:38;2.57;;;1.90;;
44750;SDS011;30477;48.224;11.470;2023-03-11T08:50:04;2.95;;;1.77;;
44750;SDS011;30477;48.224;11.470;2023-03-11T08:52:32;4.95;;;2.15;;
44750;SDS011;30477;48.224;11.470;2023-03-11T08:54:57;2.83;;;1.70;;
44750;SDS011;30477;48.224;11.470;2023-03-11T08:57:22;4.93;;;1.93;;
44750;SDS011;30477;48.224;11.470;2023-03-11T08:59:48;5.33;;;1.90;;
44750;SDS011;30477;48.224;11.470;2023-03-11T09:02:13;2.80;;;1.90;;
44750;SDS011;30477;48.224;11.470;2023-03-11T09:04:38;2.27;;;1.80;;
44750;SDS011;30477;48.224;11.470;2023-03-11T09:07:04;1.87;;;1.60;;
44750;SDS011;30477;48.224;11.470;2023-03-11T09:09:29;2.47;;;1.73;;
44750;SDS011;30477;48.224;11.470;2023-03-11T09:11:55;5.13;;;1.70;;
44750;SDS011;30477;48.224;11.470;2023-03-11T09:14:20;3.37;;;1.70;;
44750;SDS011;30477;48.224;11.470;2023-03-11T09:16:46;4.00;;;1.90;;
44750;SDS011;30477;48.224;11.470;2023-03-11T09:19:11;2.23;;;1.23;;
44750;SDS011;30477;48.224;11.470;2023-03-11T09:21:36;2.37;;;1.67;;
44750;SDS011;30477;48.224;11.470;2023-03-11T09:24:02;3.67;;;1.70;;
44750;SDS011;30477;48.224;11.470;2023-03-11T09:26:28;3.50;;;1.65;;
44750;SDS011;30477;48.224;11.470;2023-03-11T09:31:20;4.85;;;1.50;;
44750;SDS011;30477;48.224;11.470;2023-03-11T09:33:45;2.70;;;1.20;;
44750;SDS011;30477;48.224;11.470;2023-03-11T09:36:12;3.50;;;1.67;;
44750;SDS011;30477;48.224;11.470;2023-03-11T09:38:39;2.95;;;1.30;;
44750;SDS011;30477;48.224;11.470;2023-03-11T09:43:53;2.05;;;1.40;;
44750;SDS011;30477;48.224;11.470;2023-03-11T09:51:38;2.22;;;1.00;;
44750;SDS011;30477;48.224;11.470;2023-03-11T09:54:10;1.67;;;1.00;;
44750;SDS011;30477;48.224;11.470;2023-03-11T09:56:37;1.67;;;1.20;;
44750;SDS011;30477;48.224;11.470;2023-03-11T09:59:19;2.53;;;1.17;;
44750;SDS011;30477;48.224;11.470;2023-03-11T10:01:51;3.08;;;1.20;;
44750;SDS011;30477;48.224;11.470;2023-03-11T10:04:19;2.03;;;1.20;;
44750;SDS011;30477;48.224;11.470;2023-03-11T10:06:50;2.17;;;1.00;;
44750;SDS011;30477;48.224;11.470;2023-03-11T10:09:34;3.17;;;1.23;;
44750;SDS011;30477;48.224;11.470;2023-03-11T10:14:47;2.90;;;1.40;;
44750;SDS011;30477;48.224;11.470;2023-03-11T10:28:27;4.28;;;1.75;;
44750;SDS011;30477;48.224;11.470;2023-03-11T10:31:01;3.90;;;1.55;;
44750;SDS011;30477;48.224;11.470;2023-03-11T10:33:43;2.55;;;1.20;;
44750;SDS011;30477;48.224;11.470;2023-03-11T10:36:14;2.17;;;1.50;;
44750;SDS011;30477;48.224;11.470;2023-03-11T10:38:48;2.45;;;1.50;;
44750;SDS011;30477;48.224;11.470;2023-03-11T10:43:59;2.35;;;1.50;;
44750;SDS011;30477;48.224;11.470;2023-03-11T10:46:28;2.40;;;1.40;;
44750;SDS011;30477;48.224;11.470;2023-03-11T10:48:54;2.27;;;1.40;;
44750;SDS011;30477;48.224;11.470;2023-03-11T10:53:48;3.20;;;1.38;;
44750;SDS011;30477;48.224;11.470;2023-03-11T10:56:37;1.92;;;1.50;;
44750;SDS011;30477;48.224;11.470;2023-03-11T10:59:04;2.30;;;1.50;;
44750;SDS011;30477;48.224;11.470;2023-03-11T11:01:53;2.40;;;1.48;;
44750;SDS011;30477;48.224;11.470;2023-03-11T11:04:27;2.53;;;1.42;;
44750;SDS011;30477;48.224;11.470;2023-03-11T11:10:35;4.55;;;2.05;;
44750;SDS011;30477;48.224;11.470;2023-03-11T11:12:36;4.40;;;1.65;;
44750;SDS011;30477;48.224;11.470;2023-03-11T11:15:25;2.25;;;1.45;;
44750;SDS011;30477;48.224;11.470;2023-03-11T11:18:02;3.38;;;1.45;;
44750;SDS011;30477;48.224;11.470;2023-03-11T11:20:30;2.22;;;1.40;;
44750;SDS011;30477;48.224;11.470;2023-03-11T11:22:59;1.70;;;1.60;;
44750;SDS011;30477;48.224;11.470;2023-03-11T11:25:36;4.53;;;1.80;;
44750;SDS011;30477;48.224;11.470;2023-03-11T11:28:15;2.75;;;1.70;;
44750;SDS011;30477;48.224;11.470;2023-03-11T11:30:53;1.73;;;1.63;;
44750;SDS011;30477;48.224;11.470;2023-03-11T11:33:37;3.03;;;1.52;;
44750;SDS011;30477;48.224;11.470;2023-03-11T11:36:04;2.38;;;1.90;;
44750;SDS011;30477;48.224;11.470;2023-03-11T11:38:36;4.80;;;1.90;;
44750;SDS011;30477;48.224;11.470;2023-03-11T11:41:02;4.07;;;2.00;;
44750;SDS011;30477;48.224;11.470;2023-03-11T11:46:12;4.82;;;1.50;;
44750;SDS011;30477;48.224;11.470;2023-03-11T11:51:15;3.27;;;1.80;;
44750;SDS011;30477;48.224;11.470;2023-03-11T11:53:47;3.43;;;1.80;;
44750;SDS011;30477;48.224;11.470;2023-03-11T11:56:18;3.47;;;1.73;;
44750;SDS011;30477;48.224;11.470;2023-03-11T11:58:43;3.67;;;1.63;;
44750;SDS011;30477;48.224;11.470;2023-03-11T12:01:13;7.67;;;2.10;;
44750;SDS011;30477;48.224;11.470;2023-03-11T12:03:43;3.40;;;1.60;;
44750;SDS011;30477;48.224;11.470;2023-03-11T12:06:26;2.75;;;1.95;;
44750;SDS011;30477;48.224;11.470;2023-03-11T12:09:19;6.13;;;2.30;;
44750;SDS011;30477;48.224;11.470;2023-03-11T12:14:36;4.97;;;2.22;;
44750;SDS011;30477;48.224;11.470;2023-03-11T12:17:07;3.42;;;1.70;;
44750;SDS011;30477;48.224;11.470;2023-03-11T12:19:50;2.80;;;1.77;;
44750;SDS011;30477;48.224;11.470;2023-03-11T12:27:17;2.10;;;1.50;;
44750;SDS011;30477;48.224;11.470;2023-03-11T12:29:51;2.95;;;1.60;;
44750;SDS011;30477;48.224;11.470;2023-03-11T12:35:00;2.88;;;1.73;;
44750;SDS011;30477;48.224;11.470;2023-03-11T12:37:44;2.45;;;1.85;;
44750;SDS011;30477;48.224;11.470;2023-03-11T12:45:50;4.75;;;1.92;;
44750;SDS011;30477;48.224;11.470;2023-03-11T12:50:52;3.28;;;1.83;;
44750;SDS011;30477;48.224;11.470;2023-03-11T12:53:18;2.00;;;1.80;;
44750;SDS011;30477;48.224;11.470;2023-03-11T13:09:24;2.60;;;1.50;;
44750;SDS011;30477;48.224;11.470;2023-03-11T13:11:50;3.55;;;1.70;;
44750;SDS011;30477;48.224;11.470;2023-03-11T13:17:21;2.20;;;1.60;;
44750;SDS011;30477;48.224;11.470;2023-03-11T13:19:56;3.50;;;1.80;;
44750;SDS011;30477;48.224;11.470;2023-03-11T13:25:28;2.65;;;1.80;;
44750;SDS011;30477;48.224;11.470;2023-03-11T13:27:56;3.10;;;1.55;;
44750;SDS011;30477;48.224;11.470;2023-03-11T13:30:28;2.28;;;1.63;;
44750;SDS011;30477;48.224;11.470;2023-03-11T13:33:32;3.90;;;1.80;;
44750;SDS011;30477;48.224;11.470;2023-03-11T13:38:42;2.63;;;1.42;;
44750;SDS011;30477;48.224;11.470;2023-03-11T13:41:18;3.38;;;1.75;;
44750;SDS011;30477;48.224;11.470;2023-03-11T13:43:51;4.15;;;1.92;;
44750;SDS011;30477;48.224;11.470;2023-03-11T13:46:29;4.40;;;2.00;;
44750;SDS011;30477;48.224;11.470;2023-03-11T13:49:04;3.35;;;1.70;;
44750;SDS011;30477;48.224;11.470;2023-03-11T13:51:43;2.50;;;1.90;;
44750;SDS011;30477;48.224;11.470;2023-03-11T13:56:48;4.60;;;2.15;;
44750;SDS011;30477;48.224;11.470;2023-03-11T14:01:52;3.22;;;1.50;;
44750;SDS011;30477;48.224;11.470;2023-03-11T14:04:27;4.22;;;1.70;;
44750;SDS011;30477;48.224;11.470;2023-03-11T14:06:54;2.50;;;1.80;;
44750;SDS011;30477;48.224;11.470;2023-03-11T14:09:20;2.80;;;1.63;;
44750;SDS011;30477;48.224;11.470;2023-03-11T14:11:47;3.20;;;1.65;;
44750;SDS011;30477;48.224;11.470;2023-03-11T14:14:31;5.25;;;1.90;;
44750;SDS011;30477;48.224;11.470;2023-03-11T14:17:08;2.22;;;1.92;;
44750;SDS011;30477;48.224;11.470;2023-03-11T14:19:38;2.75;;;1.88;;
44750;SDS011;30477;48.224;11.470;2023-03-11T14:22:06;3.77;;;2.03;;
44750;SDS011;30477;48.224;11.470;2023-03-11T14:24:32;4.85;;;1.60;;
44750;SDS011;30477;48.224;11.470;2023-03-11T14:26:58;4.17;;;1.80;;
44750;SDS011;30477;48.224;11.470;2023-03-11T14:29:33;6.78;;;1.95;;
44750;SDS011;30477;48.224;11.470;2023-03-11T14:32:14;2.00;;;1.80;;
44750;SDS011;30477;48.224;11.470;2023-03-11T14:34:44;3.08;;;2.03;;
44750;SDS011;30477;48.224;11.470;2023-03-11T14:37:23;2.50;;;1.87;;
44750;SDS011;30477;48.224;11.470;2023-03-11T14:39:54;2.42;;;2.15;;
44750;SDS011;30477;48.224;11.470;2023-03-11T14:42:23;2.73;;;2.00;;
44750;SDS011;30477;48.224;11.470;2023-03-11T14:45:03;3.17;;;2.00;;
44750;SDS011;30477;48.224;11.470;2023-03-11T14:50:17;3.38;;;1.90;;
44750;SDS011;30477;48.224;11.470;2023-03-11T14:52:46;5.07;;;2.15;;
44750;SDS011;30477;48.224;11.470;2023-03-11T14:55:16;4.22;;;2.20;;
44750;SDS011;30477;48.224;11.470;2023-03-11T14:57:47;3.90;;;2.10;;
44750;SDS011;30477;48.224;11.470;2023-03-11T15:00:24;12.07;;;6.45;;
44750;SDS011;30477;48.224;11.470;2023-03-11T15:02:55;11.57;;;5.85;;
44750;SDS011;30477;48.224;11.470;2023-03-11T15:05:33;6.53;;;3.92;;
44750;SDS011;30477;48.224;11.470;2023-03-11T15:08:06;9.43;;;5.28;;
44750;SDS011;30477;48.224;11.470;2023-03-11T15:10:32;4.00;;;2.45;;
44750;SDS011;30477;48.224;11.470;2023-03-11T15:13:09;3.15;;;2.10;;
44750;SDS011;30477;48.224;11.470;2023-03-11T15:15:39;2.83;;;2.00;;
44750;SDS011;30477;48.224;11.470;2023-03-11T15:18:24;3.58;;;2.10;;
44750;SDS011;30477;48.224;11.470;2023-03-11T15:23:51;4.90;;;2.30;;
44750;SDS011;30477;48.224;11.470;2023-03-11T15:26:25;7.03;;;1.92;;
44750;SDS011;30477;48.224;11.470;2023-03-11T15:28:57;3.30;;;2.00;;
44750;SDS011;30477;48.224;11.470;2023-03-11T15:31:29;2.58;;;1.90;;
44750;SDS011;30477;48.224;11.470;2023-03-11T15:36:42;4.40;;;2.00;;
44750;SDS011;30477;48.224;11.470;2023-03-11T15:41:45;3.05;;;2.00;;
44750;SDS011;30477;48.224;11.470;2023-03-11T15:44:24;2.90;;;2.08;;
44750;SDS011;30477;48.224;11.470;2023-03-11T15:46:54;4.22;;;2.28;;
44750;SDS011;30477;48.224;11.470;2023-03-11T15:49:20;2.83;;;2.10;;
44750;SDS011;30477;48.224;11.470;2023-03-11T15:51:45;2.33;;;1.93;;
44750;SDS011;30477;48.224;11.470;2023-03-11T15:54:11;4.13;;;2.33;;
44750;SDS011;30477;48.224;11.470;2023-03-11T15:56:36;5.87;;;2.83;;
44750;SDS011;30477;48.224;11.470;2023-03-11T15:59:02;5.07;;;2.80;;
44750;SDS011;30477;48.224;11.470;2023-03-11T16:01:28;4.30;;;2.60;;
44750;SDS011;30477;48.224;11.470;2023-03-11T16:03:54;3.72;;;2.42;;
44750;SDS011;30477;48.224;11.470;2023-03-11T16:06:19;5.27;;;3.07;;
44750;SDS011;30477;48.224;11.470;2023-03-11T16:08:46;5.63;;;2.92;;
44750;SDS011;30477;48.224;11.470;2023-03-11T16:11:12;16.55;;;9.23;;
44750;SDS011;30477;48.224;11.470;2023-03-11T16:13:37;11.00;;;6.30;;
44750;SDS011;30477;48.224;11.470;2023-03-11T16:16:03;6.83;;;3.23;;
44750;SDS011;30477;48.224;11.470;2023-03-11T16:18:28;5.00;;;3.28;;
44750;SDS011;30477;48.224;11.470;2023-03-11T16:20:54;5.00;;;2.63;;
44750;SDS011;30477;48.224;11.470;2023-03-11T16:23:21;7.25;;;3.60;;
44750;SDS011;30477;48.224;11.470;2023-03-11T16:25:49;6.03;;;3.00;;